sensor_id;sensor_type;location;lat;lon;timestamp;temperature;humidity
7920;DHT22;18778;47.610;9.776;2023-07-29T00:23:28;16.00;99.90
7920;DHT22;18778;47.610;9.776;2023-07-29T00:25:54;17.00;99.90
7920;DHT22;18778;47.610;9.776;2023-07-29T00:28:19;17.90;99.90
7920;DHT22;18778;47.610;9.776;2023-07-29T00:30:45;15.80;99.90
7920;DHT22;18778;47.610;9.776;2023-07-29T00:33:11;16.00;99.90
7920;DHT22;18778;47.610;9.776;2023-07-29T00:35:36;15.90;99.90
7920;DHT22;18778;47.610;9.776;2023-07-29T00:38:02;15.90;99.90
7920;DHT22;18778;47.610;9.776;2023-07-29T00:40:28;18.00;99.90
7920;DHT22;18778;47.610;9.776;2023-07-29T00:42:55;15.90;99.90
7920;DHT22;18778;47.610;9.776;2023-07-29T00:45:20;15.80;99.90
7920;DHT22;18778;47.610;9.776;2023-07-29T00:47:46;15.80;99.90
7920;DHT22;18778;47.610;9.776;2023-07-29T00:50:13;15.80;99.90
7920;DHT22;18778;47.610;9.776;2023-07-29T00:52:39;15.80;99.90
7920;DHT22;18778;47.610;9.776;2023-07-29T00:55:06;15.80;99.90
7920;DHT22;18778;47.610;9.776;2023-07-29T00:57:32;15.70;99.90
7920;DHT22;18778;47.610;9.776;2023-07-29T00:59:59;19.50;99.90
7920;DHT22;18778;47.610;9.776;2023-07-29T01:02:24;17.00;99.90
7920;DHT22;18778;47.610;9.776;2023-07-29T01:04:56;15.70;99.90
7920;DHT22;18778;47.610;9.776;2023-07-29T01:10:04;15.70;99.90
7920;DHT22;18778;47.610;9.776;2023-07-29T01:12:56;15.70;99.90
7920;DHT22;18778;47.610;9.776;2023-07-29T01:15:32;15.70;99.90
7920;DHT22;18778;47.610;9.776;2023-07-29T01:18:08;15.70;99.90
7920;DHT22;18778;47.610;9.776;2023-07-29T01:20:38;15.70;99.90
7920;DHT22;18778;47.610;9.776;2023-07-29T01:23:05;18.10;99.90
7920;DHT22;18778;47.610;9.776;2023-07-29T01:25:31;15.70;99.90
7920;DHT22;18778;47.610;9.776;2023-07-29T01:27:56;15.70;99.90
7920;DHT22;18778;47.610;9.776;2023-07-29T01:30:25;15.70;99.90
7920;DHT22;18778;47.610;9.776;2023-07-29T01:35:27;15.70;99.90
7920;DHT22;18778;47.610;9.776;2023-07-29T01:37:57;15.90;99.90
7920;DHT22;18778;47.610;9.776;2023-07-29T01:40:27;15.60;99.90
7920;DHT22;18778;47.610;9.776;2023-07-29T01:42:53;15.50;99.90
7920;DHT22;18778;47.610;9.776;2023-07-29T01:45:23;15.50;99.90
7920;DHT22;18778;47.610;9.776;2023-07-29T01:47:49;15.40;99.90
7920;DHT22;18778;47.610;9.776;2023-07-29T01:50:15;15.40;99.90
7920;DHT22;18778;47.610;9.776;2023-07-29T01:52:40;16.10;99.90
7920;DHT22;18778;47.610;9.776;2023-07-29T01:55:06;15.30;99.90
7920;DHT22;18778;47.610;9.776;2023-07-29T01:57:32;15.20;99.90
7920;DHT22;18778;47.610;9.776;2023-07-29T01:59:57;15.10;99.90
7920;DHT22;18778;47.610;9.776;2023-07-29T02:02:23;15.10;99.90
7920;DHT22;18778;47.610;9.776;2023-07-29T02:04:48;15.10;99.90
7920;DHT22;18778;47.610;9.776;2023-07-29T02:07:17;15.10;99.90
7920;DHT22;18778;47.610;9.776;2023-07-29T02:09:43;15.10;99.90
7920;DHT22;18778;47.610;9.776;2023-07-29T02:12:09;15.10;99.90
7920;DHT22;18778;47.610;9.776;2023-07-29T02:14:34;15.20;99.90
7920;DHT22;18778;47.610;9.776;2023-07-29T02:17:00;15.20;99.90
7920;DHT22;18778;47.610;9.776;2023-07-29T02:19:25;15.10;99.90
7920;DHT22;18778;47.610;9.776;2023-07-29T02:21:51;15.30;99.90
7920;DHT22;18778;47.610;9.776;2023-07-29T02:24:16;15.00;99.90
7920;DHT22;18778;47.610;9.776;2023-07-29T02:26:42;15.00;99.90
7920;DHT22;18778;47.610;9.776;2023-07-29T02:29:07;15.00;99.90
7920;DHT22;18778;47.610;9.776;2023-07-29T02:31:33;15.00;99.90
7920;DHT22;18778;47.610;9.776;2023-07-29T02:34:00;15.00;99.90
7920;DHT22;18778;47.610;9.776;2023-07-29T02:36:25;15.00;99.90
7920;DHT22;18778;47.610;9.776;2023-07-29T02:38:51;17.70;99.90
7920;DHT22;18778;47.610;9.776;2023-07-29T02:41:17;15.70;99.90
7920;DHT22;18778;47.610;9.776;2023-07-29T02:43:49;15.00;99.90
7920;DHT22;18778;47.610;9.776;2023-07-29T02:46:15;17.80;99.90
7920;DHT22;18778;47.610;9.776;2023-07-29T02:48:41;14.90;99.90
7920;DHT22;18778;47.610;9.776;2023-07-29T02:51:07;14.90;99.90
7920;DHT22;18778;47.610;9.776;2023-07-29T02:53:32;14.70;99.90
7920;DHT22;18778;47.610;9.776;2023-07-29T02:55:58;16.80;99.90
7920;DHT22;18778;47.610;9.776;2023-07-29T02:58:23;14.70;99.90
7920;DHT22;18778;47.610;9.776;2023-07-29T03:00:49;14.70;99.90
7920;DHT22;18778;47.610;9.776;2023-07-29T03:03:15;14.80;99.90
7920;DHT22;18778;47.610;9.776;2023-07-29T03:05:41;14.90;99.90
7920;DHT22;18778;47.610;9.776;2023-07-29T03:08:06;14.90;99.90
7920;DHT22;18778;47.610;9.776;2023-07-29T03:10:35;14.90;99.90
7920;DHT22;18778;47.610;9.776;2023-07-29T03:13:00;15.00;99.90
7920;DHT22;18778;47.610;9.776;2023-07-29T03:15:26;15.00;99.90
7920;DHT22;18778;47.610;9.776;2023-07-29T03:17:52;15.00;99.90
7920;DHT22;18778;47.610;9.776;2023-07-29T03:20:18;15.10;99.90
7920;DHT22;18778;47.610;9.776;2023-07-29T03:22:45;15.20;99.90
7920;DHT22;18778;47.610;9.776;2023-07-29T03:25:10;15.20;99.90
7920;DHT22;18778;47.610;9.776;2023-07-29T03:27:36;15.30;99.90
7920;DHT22;18778;47.610;9.776;2023-07-29T03:30:03;15.40;99.90
7920;DHT22;18778;47.610;9.776;2023-07-29T03:32:28;15.50;99.90
7920;DHT22;18778;47.610;9.776;2023-07-29T03:34:54;15.80;99.90
7920;DHT22;18778;47.610;9.776;2023-07-29T03:37:20;15.80;99.90
7920;DHT22;18778;47.610;9.776;2023-07-29T03:39:46;15.80;99.90
7920;DHT22;18778;47.610;9.776;2023-07-29T03:42:12;17.60;99.90
7920;DHT22;18778;47.610;9.776;2023-07-29T03:44:38;15.80;99.90
7920;DHT22;18778;47.610;9.776;2023-07-29T03:47:05;15.90;99.90
7920;DHT22;18778;47.610;9.776;2023-07-29T03:49:31;15.80;99.90
7920;DHT22;18778;47.610;9.776;2023-07-29T03:51:56;15.70;99.90
7920;DHT22;18778;47.610;9.776;2023-07-29T03:54:22;15.60;99.90
7920;DHT22;18778;47.610;9.776;2023-07-29T03:56:47;15.60;99.90
7920;DHT22;18778;47.610;9.776;2023-07-29T03:59:13;15.50;99.90
7920;DHT22;18778;47.610;9.776;2023-07-29T04:01:38;15.40;99.90
7920;DHT22;18778;47.610;9.776;2023-07-29T04:04:04;15.30;99.90
7920;DHT22;18778;47.610;9.776;2023-07-29T04:06:30;16.60;99.90
7920;DHT22;18778;47.610;9.776;2023-07-29T04:08:56;15.40;99.90
7920;DHT22;18778;47.610;9.776;2023-07-29T04:11:23;15.40;99.90
7920;DHT22;18778;47.610;9.776;2023-07-29T04:13:48;15.50;99.90
7920;DHT22;18778;47.610;9.776;2023-07-29T04:16:14;15.50;99.90
7920;DHT22;18778;47.610;9.776;2023-07-29T04:18:39;15.50;99.90
7920;DHT22;18778;47.610;9.776;2023-07-29T04:21:05;15.80;99.90
7920;DHT22;18778;47.610;9.776;2023-07-29T04:23:30;16.90;99.90
7920;DHT22;18778;47.610;9.776;2023-07-29T04:25:56;17.50;99.90
7920;DHT22;18778;47.610;9.776;2023-07-29T04:28:21;15.80;99.90
7920;DHT22;18778;47.610;9.776;2023-07-29T04:30:47;18.00;99.90
7920;DHT22;18778;47.610;9.776;2023-07-29T04:35:38;16.30;99.90
7920;DHT22;18778;47.610;9.776;2023-07-29T04:38:04;16.60;99.90
7920;DHT22;18778;47.610;9.776;2023-07-29T04:40:33;16.50;99.90
7920;DHT22;18778;47.610;9.776;2023-07-29T04:43:00;16.80;99.90
7920;DHT22;18778;47.610;9.776;2023-07-29T04:45:28;16.80;99.90
7920;DHT22;18778;47.610;9.776;2023-07-29T04:47:54;16.90;99.90
7920;DHT22;18778;47.610;9.776;2023-07-29T04:50:20;17.00;99.90
7920;DHT22;18778;47.610;9.776;2023-07-29T04:52:45;17.10;99.90
7920;DHT22;18778;47.610;9.776;2023-07-29T04:55:11;17.60;99.90
7920;DHT22;18778;47.610;9.776;2023-07-29T04:57:36;17.00;99.90
7920;DHT22;18778;47.610;9.776;2023-07-29T05:00:03;17.00;99.90
7920;DHT22;18778;47.610;9.776;2023-07-29T05:02:29;17.10;99.90
7920;DHT22;18778;47.610;9.776;2023-07-29T05:04:54;17.10;99.90
7920;DHT22;18778;47.610;9.776;2023-07-29T05:07:20;17.00;99.90
7920;DHT22;18778;47.610;9.776;2023-07-29T05:09:46;17.00;99.90
7920;DHT22;18778;47.610;9.776;2023-07-29T05:12:12;17.80;99.90
7920;DHT22;18778;47.610;9.776;2023-07-29T05:14:38;16.90;99.90
7920;DHT22;18778;47.610;9.776;2023-07-29T05:17:03;16.70;99.90
7920;DHT22;18778;47.610;9.776;2023-07-29T05:19:29;16.80;99.90
7920;DHT22;18778;47.610;9.776;2023-07-29T05:21:55;16.80;99.90
7920;DHT22;18778;47.610;9.776;2023-07-29T05:24:21;16.90;99.90
7920;DHT22;18778;47.610;9.776;2023-07-29T05:26:47;16.80;99.90
7920;DHT22;18778;47.610;9.776;2023-07-29T05:29:12;18.20;99.90
7920;DHT22;18778;47.610;9.776;2023-07-29T05:31:38;16.70;99.90
7920;DHT22;18778;47.610;9.776;2023-07-29T05:34:03;16.70;99.90
7920;DHT22;18778;47.610;9.776;2023-07-29T05:36:29;16.70;99.90
7920;DHT22;18778;47.610;9.776;2023-07-29T05:38:55;16.70;99.90
7920;DHT22;18778;47.610;9.776;2023-07-29T05:41:20;16.70;99.90
7920;DHT22;18778;47.610;9.776;2023-07-29T05:43:46;16.80;99.90
7920;DHT22;18778;47.610;9.776;2023-07-29T05:46:12;16.60;99.90
7920;DHT22;18778;47.610;9.776;2023-07-29T05:48:37;17.60;99.90
7920;DHT22;18778;47.610;9.776;2023-07-29T05:51:03;16.90;99.90
7920;DHT22;18778;47.610;9.776;2023-07-29T05:53:31;17.10;99.90
7920;DHT22;18778;47.610;9.776;2023-07-29T05:55:56;16.90;99.90
7920;DHT22;18778;47.610;9.776;2023-07-29T05:58:22;17.60;99.90
7920;DHT22;18778;47.610;9.776;2023-07-29T06:00:47;17.00;99.90
7920;DHT22;18778;47.610;9.776;2023-07-29T06:03:13;17.10;99.90
7920;DHT22;18778;47.610;9.776;2023-07-29T06:05:39;17.30;99.90
7920;DHT22;18778;47.610;9.776;2023-07-29T06:08:05;17.30;99.90
7920;DHT22;18778;47.610;9.776;2023-07-29T06:10:30;17.40;99.90
7920;DHT22;18778;47.610;9.776;2023-07-29T06:12:56;17.50;99.90
7920;DHT22;18778;47.610;9.776;2023-07-29T06:15:21;18.10;99.90
7920;DHT22;18778;47.610;9.776;2023-07-29T06:17:48;17.60;99.90
7920;DHT22;18778;47.610;9.776;2023-07-29T06:20:14;18.50;99.90
7920;DHT22;18778;47.610;9.776;2023-07-29T06:22:40;17.80;99.90
7920;DHT22;18778;47.610;9.776;2023-07-29T06:25:06;17.90;99.90
7920;DHT22;18778;47.610;9.776;2023-07-29T06:27:31;18.00;99.90
7920;DHT22;18778;47.610;9.776;2023-07-29T06:29:57;18.10;99.90
7920;DHT22;18778;47.610;9.776;2023-07-29T06:32:23;18.10;99.90
7920;DHT22;18778;47.610;9.776;2023-07-29T06:34:48;18.10;99.90
7920;DHT22;18778;47.610;9.776;2023-07-29T06:37:14;18.20;99.90
7920;DHT22;18778;47.610;9.776;2023-07-29T06:39:39;18.40;99.90
7920;DHT22;18778;47.610;9.776;2023-07-29T06:42:05;18.70;99.90
7920;DHT22;18778;47.610;9.776;2023-07-29T06:44:31;18.30;99.90
7920;DHT22;18778;47.610;9.776;2023-07-29T06:46:57;18.40;99.90
7920;DHT22;18778;47.610;9.776;2023-07-29T06:49:23;18.20;99.90
7920;DHT22;18778;47.610;9.776;2023-07-29T06:51:48;19.10;99.90
7920;DHT22;18778;47.610;9.776;2023-07-29T06:54:16;18.90;99.90
7920;DHT22;18778;47.610;9.776;2023-07-29T06:56:42;19.20;99.90
7920;DHT22;18778;47.610;9.776;2023-07-29T06:59:08;19.50;99.90
7920;DHT22;18778;47.610;9.776;2023-07-29T07:01:34;19.50;99.90
7920;DHT22;18778;47.610;9.776;2023-07-29T07:03:59;19.70;99.90
7920;DHT22;18778;47.610;9.776;2023-07-29T07:06:25;19.40;99.90
7920;DHT22;18778;47.610;9.776;2023-07-29T07:08:51;19.60;99.90
7920;DHT22;18778;47.610;9.776;2023-07-29T07:11:17;19.50;99.90
7920;DHT22;18778;47.610;9.776;2023-07-29T07:13:43;20.00;99.90
7920;DHT22;18778;47.610;9.776;2023-07-29T07:16:09;19.30;99.90
7920;DHT22;18778;47.610;9.776;2023-07-29T07:18:34;19.40;99.90
7920;DHT22;18778;47.610;9.776;2023-07-29T07:21:00;19.50;99.90
7920;DHT22;18778;47.610;9.776;2023-07-29T07:23:25;19.30;99.90
7920;DHT22;18778;47.610;9.776;2023-07-29T07:25:51;19.40;99.90
7920;DHT22;18778;47.610;9.776;2023-07-29T07:28:16;20.00;99.90
7920;DHT22;18778;47.610;9.776;2023-07-29T07:30:42;20.10;99.90
7920;DHT22;18778;47.610;9.776;2023-07-29T07:33:08;20.70;99.90
7920;DHT22;18778;47.610;9.776;2023-07-29T07:35:33;20.70;99.90
7920;DHT22;18778;47.610;9.776;2023-07-29T07:37:59;21.00;99.90
7920;DHT22;18778;47.610;9.776;2023-07-29T07:40:27;21.00;99.90
7920;DHT22;18778;47.610;9.776;2023-07-29T07:42:52;21.20;99.90
7920;DHT22;18778;47.610;9.776;2023-07-29T07:45:18;21.20;99.90
7920;DHT22;18778;47.610;9.776;2023-07-29T07:47:44;21.30;99.90
7920;DHT22;18778;47.610;9.776;2023-07-29T07:50:09;21.40;99.90
7920;DHT22;18778;47.610;9.776;2023-07-29T07:52:35;21.60;99.90
7920;DHT22;18778;47.610;9.776;2023-07-29T07:55:01;21.70;99.90
7920;DHT22;18778;47.610;9.776;2023-07-29T07:57:27;21.70;99.90
7920;DHT22;18778;47.610;9.776;2023-07-29T07:59:53;22.10;99.90
7920;DHT22;18778;47.610;9.776;2023-07-29T08:02:19;22.30;99.90
7920;DHT22;18778;47.610;9.776;2023-07-29T08:04:44;22.20;99.90
7920;DHT22;18778;47.610;9.776;2023-07-29T08:07:10;22.10;99.90
7920;DHT22;18778;47.610;9.776;2023-07-29T08:12:01;21.70;99.90
7920;DHT22;18778;47.610;9.776;2023-07-29T08:14:27;21.60;99.90
7920;DHT22;18778;47.610;9.776;2023-07-29T08:16:52;21.60;99.90
7920;DHT22;18778;47.610;9.776;2023-07-29T08:19:18;21.70;99.90
7920;DHT22;18778;47.610;9.776;2023-07-29T08:21:43;21.70;99.90
7920;DHT22;18778;47.610;9.776;2023-07-29T08:24:09;21.70;99.90
7920;DHT22;18778;47.610;9.776;2023-07-29T08:26:35;22.00;99.90
7920;DHT22;18778;47.610;9.776;2023-07-29T08:29:00;22.10;99.90
7920;DHT22;18778;47.610;9.776;2023-07-29T08:31:26;22.10;99.90
7920;DHT22;18778;47.610;9.776;2023-07-29T08:33:51;22.20;99.90
7920;DHT22;18778;47.610;9.776;2023-07-29T08:36:17;22.10;99.90
7920;DHT22;18778;47.610;9.776;2023-07-29T08:38:42;22.10;99.90
7920;DHT22;18778;47.610;9.776;2023-07-29T08:41:16;22.30;99.90
7920;DHT22;18778;47.610;9.776;2023-07-29T08:46:29;22.70;99.90
7920;DHT22;18778;47.610;9.776;2023-07-29T08:48:55;23.00;99.90
7920;DHT22;18778;47.610;9.776;2023-07-29T08:51:21;23.00;99.90
7920;DHT22;18778;47.610;9.776;2023-07-29T08:53:49;23.20;99.90
7920;DHT22;18778;47.610;9.776;2023-07-29T08:56:15;23.50;99.90
7920;DHT22;18778;47.610;9.776;2023-07-29T08:58:41;23.60;99.90
7920;DHT22;18778;47.610;9.776;2023-07-29T09:01:07;23.60;99.90
7920;DHT22;18778;47.610;9.776;2023-07-29T09:03:33;23.80;99.90
7920;DHT22;18778;47.610;9.776;2023-07-29T09:05:59;23.80;99.90
7920;DHT22;18778;47.610;9.776;2023-07-29T09:08:28;24.00;99.90
7920;DHT22;18778;47.610;9.776;2023-07-29T09:10:54;24.10;99.90
7920;DHT22;18778;47.610;9.776;2023-07-29T09:13:23;24.10;99.90
7920;DHT22;18778;47.610;9.776;2023-07-29T09:15:54;24.30;99.90
7920;DHT22;18778;47.610;9.776;2023-07-29T09:18:21;24.50;99.90
7920;DHT22;18778;47.610;9.776;2023-07-29T09:20:48;24.70;99.90
7920;DHT22;18778;47.610;9.776;2023-07-29T09:23:14;24.90;99.90
7920;DHT22;18778;47.610;9.776;2023-07-29T09:25:40;25.00;99.90
7920;DHT22;18778;47.610;9.776;2023-07-29T09:28:11;25.20;99.90
7920;DHT22;18778;47.610;9.776;2023-07-29T09:30:41;25.40;99.90
7920;DHT22;18778;47.610;9.776;2023-07-29T09:33:09;25.60;99.90
7920;DHT22;18778;47.610;9.776;2023-07-29T09:35:36;25.70;99.90
7920;DHT22;18778;47.610;9.776;2023-07-29T09:38:06;25.80;99.90
7920;DHT22;18778;47.610;9.776;2023-07-29T09:40:39;25.50;99.90
7920;DHT22;18778;47.610;9.776;2023-07-29T09:43:06;25.50;99.90
7920;DHT22;18778;47.610;9.776;2023-07-29T09:45:34;25.50;99.90
7920;DHT22;18778;47.610;9.776;2023-07-29T09:50:27;25.60;99.90
7920;DHT22;18778;47.610;9.776;2023-07-29T09:52:55;25.20;99.90
7920;DHT22;18778;47.610;9.776;2023-07-29T09:55:24;25.20;99.90
7920;DHT22;18778;47.610;9.776;2023-07-29T09:57:59;25.30;99.90
7920;DHT22;18778;47.610;9.776;2023-07-29T10:00:32;25.10;99.90
7920;DHT22;18778;47.610;9.776;2023-07-29T10:02:59;25.10;99.90
7920;DHT22;18778;47.610;9.776;2023-07-29T10:05:28;25.10;99.90
7920;DHT22;18778;47.610;9.776;2023-07-29T10:07:54;25.10;99.90
7920;DHT22;18778;47.610;9.776;2023-07-29T10:10:20;25.20;99.90
7920;DHT22;18778;47.610;9.776;2023-07-29T10:12:46;26.10;99.90
7920;DHT22;18778;47.610;9.776;2023-07-29T10:15:12;26.30;99.90
7920;DHT22;18778;47.610;9.776;2023-07-29T10:17:39;26.30;99.90
7920;DHT22;18778;47.610;9.776;2023-07-29T10:20:07;26.00;99.90
7920;DHT22;18778;47.610;9.776;2023-07-29T10:22:38;25.60;99.90
7920;DHT22;18778;47.610;9.776;2023-07-29T10:27:57;25.70;99.90
7920;DHT22;18778;47.610;9.776;2023-07-29T10:30:28;26.00;99.90
7920;DHT22;18778;47.610;9.776;2023-07-29T10:32:54;25.80;99.90
7920;DHT22;18778;47.610;9.776;2023-07-29T10:35:23;25.80;99.90
7920;DHT22;18778;47.610;9.776;2023-07-29T10:37:50;25.80;99.90
7920;DHT22;18778;47.610;9.776;2023-07-29T10:40:16;25.70;99.90
7920;DHT22;18778;47.610;9.776;2023-07-29T10:43:11;26.20;99.90
7920;DHT22;18778;47.610;9.776;2023-07-29T10:45:38;26.20;99.90
7920;DHT22;18778;47.610;9.776;2023-07-29T10:48:11;26.10;99.90
7920;DHT22;18778;47.610;9.776;2023-07-29T10:50:37;26.20;99.90
7920;DHT22;18778;47.610;9.776;2023-07-29T10:53:03;26.30;99.90
7920;DHT22;18778;47.610;9.776;2023-07-29T10:55:35;26.40;99.90
7920;DHT22;18778;47.610;9.776;2023-07-29T10:58:15;26.40;99.90
7920;DHT22;18778;47.610;9.776;2023-07-29T11:00:43;26.60;99.90
7920;DHT22;18778;47.610;9.776;2023-07-29T11:03:09;26.60;99.90
7920;DHT22;18778;47.610;9.776;2023-07-29T11:05:53;26.60;99.90
7920;DHT22;18778;47.610;9.776;2023-07-29T11:08:31;26.70;99.90
7920;DHT22;18778;47.610;9.776;2023-07-29T11:11:04;26.90;99.90
7920;DHT22;18778;47.610;9.776;2023-07-29T11:13:31;27.00;99.90
7920;DHT22;18778;47.610;9.776;2023-07-29T11:15:58;27.10;99.90
7920;DHT22;18778;47.610;9.776;2023-07-29T11:18:43;27.30;99.90
7920;DHT22;18778;47.610;9.776;2023-07-29T11:21:09;27.50;99.90
7920;DHT22;18778;47.610;9.776;2023-07-29T11:23:36;27.90;99.90
7920;DHT22;18778;47.610;9.776;2023-07-29T11:26:03;27.90;99.90
7920;DHT22;18778;47.610;9.776;2023-07-29T11:28:29;28.20;99.90
7920;DHT22;18778;47.610;9.776;2023-07-29T11:30:56;28.20;99.90
7920;DHT22;18778;47.610;9.776;2023-07-29T11:33:24;27.90;99.90
7920;DHT22;18778;47.610;9.776;2023-07-29T11:35:50;27.60;99.90
7920;DHT22;18778;47.610;9.776;2023-07-29T11:38:17;27.80;99.90
7920;DHT22;18778;47.610;9.776;2023-07-29T11:40:43;27.90;99.90
7920;DHT22;18778;47.610;9.776;2023-07-29T11:43:08;28.00;99.90
7920;DHT22;18778;47.610;9.776;2023-07-29T11:45:34;27.80;99.90
7920;DHT22;18778;47.610;9.776;2023-07-29T11:48:01;28.00;99.90
7920;DHT22;18778;47.610;9.776;2023-07-29T11:50:27;28.20;99.90
7920;DHT22;18778;47.610;9.776;2023-07-29T11:52:52;28.40;99.90
7920;DHT22;18778;47.610;9.776;2023-07-29T11:55:51;28.50;99.90
7920;DHT22;18778;47.610;9.776;2023-07-29T11:58:18;28.50;99.90
7920;DHT22;18778;47.610;9.776;2023-07-29T12:00:44;28.50;99.90
7920;DHT22;18778;47.610;9.776;2023-07-29T12:03:09;28.40;99.90
7920;DHT22;18778;47.610;9.776;2023-07-29T12:05:36;28.10;99.90
7920;DHT22;18778;47.610;9.776;2023-07-29T12:08:02;27.90;99.90
7920;DHT22;18778;47.610;9.776;2023-07-29T12:10:28;27.90;99.90
7920;DHT22;18778;47.610;9.776;2023-07-29T12:12:53;28.10;99.90
7920;DHT22;18778;47.610;9.776;2023-07-29T12:15:24;28.10;99.90
7920;DHT22;18778;47.610;9.776;2023-07-29T12:17:56;28.10;99.90
7920;DHT22;18778;47.610;9.776;2023-07-29T12:25:20;27.90;99.90
7920;DHT22;18778;47.610;9.776;2023-07-29T12:27:47;27.70;99.90
7920;DHT22;18778;47.610;9.776;2023-07-29T12:30:12;27.70;99.90
7920;DHT22;18778;47.610;9.776;2023-07-29T12:32:45;27.50;99.90
7920;DHT22;18778;47.610;9.776;2023-07-29T12:35:11;27.40;99.90
7920;DHT22;18778;47.610;9.776;2023-07-29T12:37:36;27.40;99.90
7920;DHT22;18778;47.610;9.776;2023-07-29T12:40:04;27.30;99.90
7920;DHT22;18778;47.610;9.776;2023-07-29T12:42:30;27.10;99.90
7920;DHT22;18778;47.610;9.776;2023-07-29T12:44:55;27.20;99.90
7920;DHT22;18778;47.610;9.776;2023-07-29T12:47:21;27.10;99.90
7920;DHT22;18778;47.610;9.776;2023-07-29T12:49:46;27.10;99.90
7920;DHT22;18778;47.610;9.776;2023-07-29T12:52:12;26.90;99.90
7920;DHT22;18778;47.610;9.776;2023-07-29T12:54:37;26.70;99.90
7920;DHT22;18778;47.610;9.776;2023-07-29T12:57:06;26.40;99.90
7920;DHT22;18778;47.610;9.776;2023-07-29T12:59:31;26.10;99.90
7920;DHT22;18778;47.610;9.776;2023-07-29T13:01:57;25.90;99.90
7920;DHT22;18778;47.610;9.776;2023-07-29T13:04:22;25.70;99.90
7920;DHT22;18778;47.610;9.776;2023-07-29T13:06:48;25.50;99.90
7920;DHT22;18778;47.610;9.776;2023-07-29T13:09:14;25.20;99.90
7920;DHT22;18778;47.610;9.776;2023-07-29T13:11:39;25.00;99.90
7920;DHT22;18778;47.610;9.776;2023-07-29T13:14:05;24.80;99.90
7920;DHT22;18778;47.610;9.776;2023-07-29T13:16:30;24.50;99.90
7920;DHT22;18778;47.610;9.776;2023-07-29T13:18:57;24.40;99.90
7920;DHT22;18778;47.610;9.776;2023-07-29T13:21:23;24.20;99.90
7920;DHT22;18778;47.610;9.776;2023-07-29T13:23:49;24.10;99.90
7920;DHT22;18778;47.610;9.776;2023-07-29T13:26:14;23.90;99.90
7920;DHT22;18778;47.610;9.776;2023-07-29T13:28:40;23.90;99.90
7920;DHT22;18778;47.610;9.776;2023-07-29T13:36:00;23.80;99.90
7920;DHT22;18778;47.610;9.776;2023-07-29T13:38:25;23.80;99.90
7920;DHT22;18778;47.610;9.776;2023-07-29T13:43:17;23.80;99.90
7920;DHT22;18778;47.610;9.776;2023-07-29T13:45:43;23.70;99.90
7920;DHT22;18778;47.610;9.776;2023-07-29T13:48:08;23.60;99.90
7920;DHT22;18778;47.610;9.776;2023-07-29T13:50:34;23.50;99.90
7920;DHT22;18778;47.610;9.776;2023-07-29T13:52:59;23.20;99.90
7920;DHT22;18778;47.610;9.776;2023-07-29T13:57:53;23.00;99.90
7920;DHT22;18778;47.610;9.776;2023-07-29T14:00:19;22.90;99.90
7920;DHT22;18778;47.610;9.776;2023-07-29T14:02:45;22.70;99.90
7920;DHT22;18778;47.610;9.776;2023-07-29T14:05:10;22.60;99.90
7920;DHT22;18778;47.610;9.776;2023-07-29T14:10:03;22.30;99.90
7920;DHT22;18778;47.610;9.776;2023-07-29T14:14:55;21.80;99.90
7920;DHT22;18778;47.610;9.776;2023-07-29T14:17:20;21.60;99.90
7920;DHT22;18778;47.610;9.776;2023-07-29T14:19:46;21.50;99.90
7920;DHT22;18778;47.610;9.776;2023-07-29T14:27:04;21.00;99.90
7920;DHT22;18778;47.610;9.776;2023-07-29T14:29:29;21.00;99.90
7920;DHT22;18778;47.610;9.776;2023-07-29T14:31:55;20.90;99.90
7920;DHT22;18778;47.610;9.776;2023-07-29T14:34:21;20.90;99.90
7920;DHT22;18778;47.610;9.776;2023-07-29T14:36:46;20.60;99.90
7920;DHT22;18778;47.610;9.776;2023-07-29T14:39:12;20.60;99.90
7920;DHT22;18778;47.610;9.776;2023-07-29T14:41:37;20.40;99.90
7920;DHT22;18778;47.610;9.776;2023-07-29T14:44:03;20.20;99.90
7920;DHT22;18778;47.610;9.776;2023-07-29T14:46:28;19.90;99.90
7920;DHT22;18778;47.610;9.776;2023-07-29T14:48:54;19.80;99.90
7920;DHT22;18778;47.610;9.776;2023-07-29T14:51:20;19.70;99.90
7920;DHT22;18778;47.610;9.776;2023-07-29T14:53:45;19.70;99.90
7920;DHT22;18778;47.610;9.776;2023-07-29T14:56:11;19.80;99.90
7920;DHT22;18778;47.610;9.776;2023-07-29T14:58:39;19.80;99.90
7920;DHT22;18778;47.610;9.776;2023-07-29T15:01:04;19.70;99.90
7920;DHT22;18778;47.610;9.776;2023-07-29T15:03:30;19.90;99.90
7920;DHT22;18778;47.610;9.776;2023-07-29T15:05:55;19.90;99.90
7920;DHT22;18778;47.610;9.776;2023-07-29T15:08:21;19.80;99.90
7920;DHT22;18778;47.610;9.776;2023-07-29T15:10:47;19.90;99.90
7920;DHT22;18778;47.610;9.776;2023-07-29T15:13:13;19.90;99.90
7920;DHT22;18778;47.610;9.776;2023-07-29T15:15:43;19.90;99.90
7920;DHT22;18778;47.610;9.776;2023-07-29T15:18:08;19.80;99.90
7920;DHT22;18778;47.610;9.776;2023-07-29T15:20:34;19.80;99.90
7920;DHT22;18778;47.610;9.776;2023-07-29T15:23:00;20.40;99.90
7920;DHT22;18778;47.610;9.776;2023-07-29T15:25:25;19.80;99.90
7920;DHT22;18778;47.610;9.776;2023-07-29T15:27:51;19.90;99.90
7920;DHT22;18778;47.610;9.776;2023-07-29T15:30:16;19.90;99.90
7920;DHT22;18778;47.610;9.776;2023-07-29T15:35:08;19.70;99.90
7920;DHT22;18778;47.610;9.776;2023-07-29T15:37:33;19.50;99.90
7920;DHT22;18778;47.610;9.776;2023-07-29T15:39:59;19.60;99.90
7920;DHT22;18778;47.610;9.776;2023-07-29T15:42:25;19.50;99.90
7920;DHT22;18778;47.610;9.776;2023-07-29T15:44:51;19.40;99.90
7920;DHT22;18778;47.610;9.776;2023-07-29T15:47:16;19.60;99.90
7920;DHT22;18778;47.610;9.776;2023-07-29T15:49:50;19.60;99.90
7920;DHT22;18778;47.610;9.776;2023-07-29T15:52:15;19.80;99.90
7920;DHT22;18778;47.610;9.776;2023-07-29T15:54:42;20.00;99.90
7920;DHT22;18778;47.610;9.776;2023-07-29T15:57:08;20.10;99.90
7920;DHT22;18778;47.610;9.776;2023-07-29T15:59:34;20.00;99.90
7920;DHT22;18778;47.610;9.776;2023-07-29T16:01:59;20.00;99.90
7920;DHT22;18778;47.610;9.776;2023-07-29T16:04:25;19.80;99.90
7920;DHT22;18778;47.610;9.776;2023-07-29T16:06:51;19.80;99.90
7920;DHT22;18778;47.610;9.776;2023-07-29T16:09:16;19.80;99.90
7920;DHT22;18778;47.610;9.776;2023-07-29T16:11:49;19.80;99.90
7920;DHT22;18778;47.610;9.776;2023-07-29T16:14:14;19.90;99.90
7920;DHT22;18778;47.610;9.776;2023-07-29T16:16:40;20.00;99.90
7920;DHT22;18778;47.610;9.776;2023-07-29T16:19:05;20.00;99.90
7920;DHT22;18778;47.610;9.776;2023-07-29T16:21:31;20.00;99.90
7920;DHT22;18778;47.610;9.776;2023-07-29T16:23:57;19.80;99.90
7920;DHT22;18778;47.610;9.776;2023-07-29T16:26:23;19.80;99.90
7920;DHT22;18778;47.610;9.776;2023-07-29T16:28:48;19.90;99.90
7920;DHT22;18778;47.610;9.776;2023-07-29T16:31:14;19.70;99.90
7920;DHT22;18778;47.610;9.776;2023-07-29T16:33:40;19.80;99.90
7920;DHT22;18778;47.610;9.776;2023-07-29T16:36:06;19.70;99.90
7920;DHT22;18778;47.610;9.776;2023-07-29T16:38:31;19.80;99.90
7920;DHT22;18778;47.610;9.776;2023-07-29T16:40:57;19.80;99.90
7920;DHT22;18778;47.610;9.776;2023-07-29T16:43:22;19.90;99.90
7920;DHT22;18778;47.610;9.776;2023-07-29T16:45:48;19.90;99.90
7920;DHT22;18778;47.610;9.776;2023-07-29T16:48:13;19.90;99.90